Rankin, North Carolina
Current Conditions -  °F | °C
As of 11:54 PM on Tuesday 25 Nov 2014 (Local Time) from KGSO Reporting Station
Light Rain Light Rain  
Wind Chill: 45°   Ceiling: 6000
Heat Index: 47°   Visibility: 10mi
Dew Point: 43°   Wind: 5mph
Humidity: 86%   Direction: 10°N
Pressure: 30.04"   Gusts: NA
Location:  36.1157°N, 79.7378°W
Report Text: KGSO 260454Z 01004KT 10SM -RA OVC060 08/06 A3004 RMK AO2 SLP172 P0002 T00830061 401830083
Loading
Personal Weather Stations






























Interactive Weather Map New forecast layout! Learn more

10-Day Weather Forecast

Advertisements
Track Severe Weather on mobile